Time;durP1;ratioP1;P1;durP2;ratioP2;P2;SDS_P1;SDS_P2;PMS_P1;PMS_P2;Temp;Humidity;BMP_temperature;BMP_pressure;BME280_temperature;BME280_humidity;BME280_pressure;Samples;Min_cycle;Max_cycle;Signal;HPM_P1;HPM_P2
2022/03/17 00:00:09;;;;;;;;;;;7.70;88.60;;;;;;5042884;28;19994;-72
2022/03/17 00:02:36;;;;;;;;;;;7.80;88.40;;;;;;5045213;28;19909;-72
2022/03/17 00:05:02;;;;;;;;;;;7.80;88.50;;;;;;5044240;28;19909;-72
2022/03/17 00:07:29;;;;;;;;;;;7.70;88.90;;;;;;5044318;28;19909;-72
2022/03/17 00:09:56;;;;;;;;;;;7.70;88.90;;;;;;5044073;28;19920;-72
2022/03/17 00:12:21;;;;;;;;;;;7.70;88.70;;;;;;5043944;28;19917;-72
2022/03/17 00:14:47;;;;;;;;;;;7.70;88.50;;;;;;5027269;28;19909;-72
2022/03/17 00:17:13;;;;;;;;;;;7.80;88.40;;;;;;5045189;28;20238;-72
2022/03/17 00:19:39;;;;;;;;;;;7.80;88.30;;;;;;5044018;28;19913;-71
2022/03/17 00:22:08;;;;;;;;;;;7.70;88.30;;;;;;5044912;28;19975;-70
2022/03/17 00:24:37;;;;;;;;;;;7.70;88.90;;;;;;5044004;28;19979;-71
2022/03/17 00:27:05;;;;;;;;;;;7.70;88.30;;;;;;5045155;28;19916;-71
2022/03/17 00:29:33;;;;;;;;;;;7.70;88.20;;;;;;5043517;28;19952;-70
2022/03/17 00:31:59;;;;;;;;;;;7.80;88.20;;;;;;5027141;28;19909;-70
2022/03/17 00:34:24;;;;;;;;;;;7.70;88.10;;;;;;5043964;28;19916;-70
2022/03/17 00:36:50;;;;;;;;;;;7.70;88.20;;;;;;5045185;28;20111;-70
2022/03/17 00:39:16;;;;;;;;;;;7.70;88.10;;;;;;5043648;28;19920;-70
2022/03/17 00:41:43;;;;;;;;;;;7.70;88.30;;;;;;5043370;28;20089;-70
2022/03/17 00:44:10;;;;;;;;;;;7.60;88.30;;;;;;5043426;28;20112;-71
2022/03/17 00:46:36;;;;;;;;;;;7.60;88.30;;;;;;5043645;28;19916;-71
2022/03/17 00:49:03;;;;;;;;;;;7.60;88.50;;;;;;5027146;28;19909;-72
2022/03/17 00:51:29;;;;;;;;;;;7.60;88.60;;;;;;5026700;28;20112;-71
2022/03/17 00:53:54;;;;;;;;;;;7.50;89.10;;;;;;5044614;28;19909;-71
2022/03/17 00:56:20;;;;;;;;;;;7.50;89.20;;;;;;5044576;28;19916;-71
2022/03/17 00:58:48;;;;;;;;;;;7.50;88.70;;;;;;5042105;28;19917;-71
2022/03/17 01:01:17;;;;;;;;;;;7.50;88.90;;;;;;5043992;28;20204;-71
2022/03/17 01:03:43;;;;;;;;;;;7.50;88.90;;;;;;5043200;28;19909;-71
2022/03/17 01:06:10;;;;;;;;;;;7.50;88.60;;;;;;5044294;28;19940;-71
2022/03/17 01:08:36;;;;;;;;;;;7.40;88.60;;;;;;5044233;28;20231;-71
2022/03/17 01:11:02;;;;;;;;;;;7.40;88.60;;;;;;5042675;28;20146;-71
2022/03/17 01:13:28;;;;;;;;;;;7.40;89.50;;;;;;5026443;28;19967;-71
2022/03/17 01:15:54;;;;;;;;;;;7.40;89.00;;;;;;5044048;28;19913;-71
2022/03/17 01:18:21;;;;;;;;;;;7.40;88.80;;;;;;5042959;28;20060;-71
2022/03/17 01:20:50;;;;;;;;;;;7.40;88.80;;;;;;5042543;28;19913;-71
2022/03/17 01:23:17;;;;;;;;;;;7.30;88.90;;;;;;5044123;28;19915;-71
2022/03/17 01:25:43;;;;;;;;;;;7.20;89.30;;;;;;5042820;28;19916;-72
2022/03/17 01:28:08;;;;;;;;;;;7.30;89.30;;;;;;5042596;28;19976;-71
2022/03/17 01:30:35;;;;;;;;;;;7.20;89.10;;;;;;5043846;28;20096;-70
2022/03/17 01:33:01;;;;;;;;;;;7.20;89.50;;;;;;5043756;28;19909;-72
2022/03/17 01:35:27;;;;;;;;;;;7.20;89.40;;;;;;5043679;28;19940;-72
2022/03/17 01:37:53;;;;;;;;;;;7.20;89.20;;;;;;5043854;28;19916;-72
2022/03/17 01:40:18;;;;;;;;;;;7.10;89.20;;;;;;5043222;28;19984;-72
2022/03/17 01:42:44;;;;;;;;;;;7.10;89.20;;;;;;5043343;28;19909;-71
2022/03/17 01:45:10;;;;;;;;;;;7.10;89.40;;;;;;5042153;28;19916;-72
2022/03/17 01:47:36;;;;;;;;;;;7.00;89.60;;;;;;5026027;28;19976;-72
2022/03/17 01:50:04;;;;;;;;;;;7.10;89.40;;;;;;5042336;28;19909;-72
2022/03/17 01:52:29;;;;;;;;;;;7.10;89.20;;;;;;5042112;28;19913;-72
2022/03/17 01:54:55;;;;;;;;;;;7.10;89.00;;;;;;5042196;28;19909;-72
2022/03/17 01:57:21;;;;;;;;;;;7.00;89.20;;;;;;5025773;28;19909;-72
2022/03/17 01:59:50;;;;;;;;;;;7.00;89.50;;;;;;5041786;28;19980;-72
2022/03/17 02:02:16;;;;;;;;;;;7.10;89.30;;;;;;5042974;28;19951;-72
2022/03/17 02:04:41;;;;;;;;;;;7.10;89.00;;;;;;5042213;28;19909;-72
2022/03/17 02:07:08;;;;;;;;;;;7.20;88.50;;;;;;5042132;28;19916;-71
2022/03/17 02:09:34;;;;;;;;;;;7.20;87.90;;;;;;5042042;28;19953;-71
2022/03/17 02:14:53;;;;;;;;;;;7.10;88.10;;;;;;5042009;28;19915;-71
2022/03/17 02:17:19;;;;;;;;;;;7.10;88.20;;;;;;5041992;28;19916;-70
2022/03/17 02:19:45;;;;;;;;;;;7.10;88.00;;;;;;5041750;28;19913;-70
2022/03/17 02:22:12;;;;;;;;;;;7.10;88.30;;;;;;5042748;28;19924;-70
2022/03/17 02:27:25;;;;;;;;;;;7.00;88.70;;;;;;5042041;28;19916;-70
2022/03/17 02:29:51;;;;;;;;;;;7.00;88.40;;;;;;5042542;28;19947;-70
2022/03/17 02:32:17;;;;;;;;;;;7.00;88.40;;;;;;5042446;28;19909;-70
2022/03/17 02:34:44;;;;;;;;;;;7.00;88.40;;;;;;5042903;28;20107;-69
2022/03/17 02:37:12;;;;;;;;;;;7.10;88.10;;;;;;5042830;28;20192;-70
2022/03/17 02:39:38;;;;;;;;;;;7.10;87.80;;;;;;5041780;28;20204;-71
2022/03/17 02:44:32;;;;;;;;;;;7.00;88.20;;;;;;5077443;28;20123;-71
2022/03/17 02:46:58;;;;;;;;;;;7.00;88.40;;;;;;5081550;28;19909;-72
2022/03/17 02:49:24;;;;;;;;;;;7.00;88.40;;;;;;5081756;28;20264;-73
2022/03/17 02:51:50;;;;;;;;;;;7.00;88.30;;;;;;5081543;28;19916;-71
2022/03/17 02:54:16;;;;;;;;;;;7.00;88.00;;;;;;5082627;28;19946;-71
2022/03/17 02:56:41;;;;;;;;;;;7.00;88.10;;;;;;5081619;28;19908;-72
2022/03/17 02:59:07;;;;;;;;;;;6.90;88.20;;;;;;5081654;28;19923;-72
2022/03/17 03:01:33;;;;;;;;;;;6.90;88.60;;;;;;5081265;28;19915;-73
2022/03/17 03:03:58;;;;;;;;;;;6.90;88.60;;;;;;5082661;28;19915;-70
2022/03/17 03:06:24;;;;;;;;;;;6.80;88.80;;;;;;5082671;28;19983;-70
2022/03/17 03:08:50;;;;;;;;;;;6.80;88.90;;;;;;5082557;28;20104;-70
2022/03/17 03:11:15;;;;;;;;;;;6.80;89.10;;;;;;5082190;28;19908;-71
2022/03/17 03:13:42;;;;;;;;;;;6.80;89.20;;;;;;5082278;28;19943;-72
2022/03/17 03:16:08;;;;;;;;;;;6.70;89.70;;;;;;5082549;28;19909;-72
2022/03/17 03:18:34;;;;;;;;;;;6.70;89.50;;;;;;5081053;28;19915;-72
2022/03/17 03:20:59;;;;;;;;;;;6.70;89.70;;;;;;5081972;28;19919;-72
2022/03/17 03:23:25;;;;;;;;;;;6.60;89.80;;;;;;5082384;28;20142;-72
2022/03/17 03:25:51;;;;;;;;;;;6.60;90.00;;;;;;5084920;28;19908;-72
2022/03/17 03:28:16;;;;;;;;;;;6.60;90.00;;;;;;5085889;28;19931;-73
2022/03/17 03:30:42;;;;;;;;;;;6.60;90.00;;;;;;5085771;28;19908;-72
2022/03/17 03:33:08;;;;;;;;;;;6.60;90.00;;;;;;5086045;28;19909;-72
2022/03/17 03:38:19;;;;;;;;;;;6.60;90.10;;;;;;5070984;28;19946;-72
2022/03/17 03:40:46;;;;;;;;;;;6.50;90.10;;;;;;5084338;28;19920;-72
2022/03/17 03:43:11;;;;;;;;;;;6.50;90.10;;;;;;5067826;28;19912;-71
2022/03/17 03:45:37;;;;;;;;;;;6.50;90.10;;;;;;5080328;28;19975;-72
2022/03/17 03:48:03;;;;;;;;;;;6.50;90.20;;;;;;5085725;28;20247;-72
2022/03/17 03:50:30;;;;;;;;;;;6.50;90.30;;;;;;5067901;28;19913;-72
2022/03/17 03:52:57;;;;;;;;;;;6.50;90.30;;;;;;5084333;28;19998;-72
2022/03/17 03:55:22;;;;;;;;;;;6.50;90.10;;;;;;5085580;28;19923;-71
2022/03/17 03:57:48;;;;;;;;;;;6.60;90.00;;;;;;5084354;28;19908;-71
2022/03/17 04:02:55;;;;;;;;;;;6.60;90.40;;;;;;5085539;28;20215;-69
2022/03/17 04:05:26;;;;;;;;;;;6.50;90.70;;;;;;5084582;28;19909;-71
2022/03/17 04:07:55;;;;;;;;;;;6.50;90.60;;;;;;5068437;28;19924;-70
2022/03/17 04:10:20;;;;;;;;;;;6.50;90.60;;;;;;5084123;28;19908;-70
2022/03/17 04:12:46;;;;;;;;;;;6.60;90.70;;;;;;5084873;28;20115;-72
2022/03/17 04:15:12;;;;;;;;;;;6.50;90.90;;;;;;5085405;28;20313;-71
2022/03/17 04:17:37;;;;;;;;;;;6.50;90.80;;;;;;5085369;28;19909;-71
2022/03/17 04:20:05;;;;;;;;;;;6.50;90.70;;;;;;5085136;28;19912;-70
2022/03/17 04:22:31;;;;;;;;;;;6.40;90.80;;;;;;5083880;28;19908;-72
2022/03/17 04:24:57;;;;;;;;;;;6.40;91.00;;;;;;5084498;28;20033;-72
2022/03/17 04:27:23;;;;;;;;;;;6.30;91.20;;;;;;5085128;28;19916;-71
2022/03/17 04:29:48;;;;;;;;;;;6.30;91.20;;;;;;5083766;28;19940;-71
2022/03/17 04:32:14;;;;;;;;;;;6.40;91.10;;;;;;5084772;28;19909;-72
2022/03/17 04:34:40;;;;;;;;;;;6.40;90.90;;;;;;5085357;28;20265;-71
2022/03/17 04:37:06;;;;;;;;;;;6.40;90.90;;;;;;5084573;28;19909;-73
2022/03/17 04:39:32;;;;;;;;;;;6.40;91.00;;;;;;5084791;28;19952;-72
2022/03/17 04:41:58;;;;;;;;;;;6.40;91.00;;;;;;5083594;28;19962;-72
2022/03/17 04:44:24;;;;;;;;;;;6.40;91.00;;;;;;5084471;28;19912;-72
2022/03/17 04:46:50;;;;;;;;;;;6.40;91.00;;;;;;5084696;28;19991;-70
2022/03/17 04:49:16;;;;;;;;;;;6.40;91.00;;;;;;5084565;28;19908;-72
2022/03/17 04:51:42;;;;;;;;;;;6.40;90.90;;;;;;5084463;28;19909;-72
2022/03/17 04:54:07;;;;;;;;;;;6.40;90.90;;;;;;5084479;28;19931;-72
2022/03/17 04:56:33;;;;;;;;;;;6.40;90.80;;;;;;5083422;28;19915;-72
2022/03/17 04:58:59;;;;;;;;;;;6.50;90.70;;;;;;5084101;28;19920;-71
2022/03/17 05:01:24;;;;;;;;;;;6.50;90.60;;;;;;5082274;28;19987;-70
2022/03/17 05:03:50;;;;;;;;;;;6.50;90.60;;;;;;5084109;28;19960;-71
2022/03/17 05:06:16;;;;;;;;;;;6.60;90.40;;;;;;5084310;28;19908;-72
2022/03/17 05:08:42;;;;;;;;;;;6.60;90.40;;;;;;5073160;28;19913;-70
2022/03/17 05:11:09;;;;;;;;;;;6.50;90.30;;;;;;5063936;28;19913;-71
2022/03/17 05:13:35;;;;;;;;;;;6.50;90.40;;;;;;5062729;28;20204;-72
2022/03/17 05:16:01;;;;;;;;;;;6.60;90.30;;;;;;5063028;28;19932;-71
2022/03/17 05:18:26;;;;;;;;;;;6.60;90.20;;;;;;5063902;28;19909;-72
2022/03/17 05:20:52;;;;;;;;;;;6.60;90.20;;;;;;5063594;28;19912;-71
2022/03/17 05:23:19;;;;;;;;;;;6.60;90.10;;;;;;5062683;28;19909;-72
2022/03/17 05:25:46;;;;;;;;;;;6.60;90.10;;;;;;5062798;28;19940;-71
2022/03/17 05:28:12;;;;;;;;;;;6.60;90.20;;;;;;5062551;28;19909;-71
2022/03/17 05:30:38;;;;;;;;;;;6.60;90.40;;;;;;5071659;28;19908;-71
2022/03/17 05:33:05;;;;;;;;;;;6.60;90.40;;;;;;5083413;28;20231;-71
2022/03/17 05:35:30;;;;;;;;;;;6.60;90.40;;;;;;5083761;28;19912;-71
2022/03/17 05:37:56;;;;;;;;;;;6.60;90.50;;;;;;5082527;28;19947;-71
2022/03/17 05:40:23;;;;;;;;;;;6.60;90.80;;;;;;5065546;28;20228;-71
2022/03/17 05:42:50;;;;;;;;;;;6.70;90.10;;;;;;5082988;28;19947;-71
2022/03/17 05:45:16;;;;;;;;;;;6.60;90.20;;;;;;5082526;28;20089;-71
2022/03/17 05:47:46;;;;;;;;;;;6.70;90.10;;;;;;5082681;28;19931;-71
2022/03/17 05:50:13;;;;;;;;;;;6.70;90.10;;;;;;5083475;28;19915;-73
2022/03/17 05:52:40;;;;;;;;;;;6.70;90.00;;;;;;5065313;28;19915;-71
2022/03/17 05:55:06;;;;;;;;;;;6.70;90.00;;;;;;5065685;28;19958;-71
2022/03/17 05:57:39;;;;;;;;;;;6.70;89.80;;;;;;5065503;28;19915;-71
2022/03/17 06:00:06;;;;;;;;;;;6.70;89.80;;;;;;5061600;28;19912;-71
2022/03/17 06:02:33;;;;;;;;;;;6.80;89.70;;;;;;5062815;28;19944;-71
2022/03/17 06:04:58;;;;;;;;;;;6.80;89.50;;;;;;5078706;28;19909;-71
2022/03/17 06:07:24;;;;;;;;;;;6.80;89.40;;;;;;5063108;28;20383;-71
2022/03/17 06:09:50;;;;;;;;;;;6.80;89.60;;;;;;5062938;28;19919;-71
2022/03/17 06:12:15;;;;;;;;;;;6.70;89.40;;;;;;5062724;28;19976;-71
2022/03/17 06:14:42;;;;;;;;;;;6.70;89.60;;;;;;5062650;28;19909;-71
2022/03/17 06:17:09;;;;;;;;;;;6.80;89.50;;;;;;5081633;28;20111;-71
2022/03/17 06:19:35;;;;;;;;;;;6.80;89.30;;;;;;5082619;28;19916;-71
2022/03/17 06:22:00;;;;;;;;;;;6.90;89.20;;;;;;5082619;28;20250;-71
2022/03/17 06:24:26;;;;;;;;;;;6.90;89.00;;;;;;5082784;28;20119;-71
2022/03/17 06:26:52;;;;;;;;;;;6.90;88.90;;;;;;5082896;28;20283;-71
2022/03/17 06:29:18;;;;;;;;;;;7.00;89.40;;;;;;5082716;28;19909;-71
2022/03/17 06:31:43;;;;;;;;;;;7.00;88.80;;;;;;5081608;28;19908;-71
2022/03/17 06:34:09;;;;;;;;;;;7.00;88.50;;;;;;5082613;28;20008;-70
2022/03/17 06:36:35;;;;;;;;;;;7.10;88.40;;;;;;5082666;28;19921;-70
2022/03/17 06:39:00;;;;;;;;;;;7.10;88.50;;;;;;5076946;28;20115;-68
2022/03/17 06:41:26;;;;;;;;;;;7.00;88.50;;;;;;5074130;28;20107;-70
2022/03/17 06:43:52;;;;;;;;;;;7.10;89.20;;;;;;5082115;28;19912;-69
2022/03/17 06:46:17;;;;;;;;;;;7.10;88.60;;;;;;5082711;28;20164;-70
2022/03/17 06:48:43;;;;;;;;;;;7.10;88.40;;;;;;5082665;28;19915;-69
2022/03/17 06:51:08;;;;;;;;;;;7.10;88.40;;;;;;5082327;28;19915;-69
2022/03/17 06:53:34;;;;;;;;;;;7.20;88.50;;;;;;5082723;28;19908;-69
2022/03/17 06:56:00;;;;;;;;;;;7.20;88.50;;;;;;5081275;28;19908;-69
2022/03/17 06:58:25;;;;;;;;;;;7.20;88.30;;;;;;5082827;28;19979;-70
2022/03/17 07:00:51;;;;;;;;;;;7.20;88.30;;;;;;5085708;28;20322;-69
2022/03/17 07:03:17;;;;;;;;;;;7.20;88.20;;;;;;5086659;28;19915;-69
2022/03/17 07:05:43;;;;;;;;;;;7.20;88.30;;;;;;5086486;28;19909;-70
2022/03/17 07:08:08;;;;;;;;;;;7.20;88.60;;;;;;5086606;28;19909;-69
2022/03/17 07:10:34;;;;;;;;;;;7.30;88.10;;;;;;5086125;28;20149;-70
2022/03/17 07:13:00;;;;;;;;;;;7.40;88.10;;;;;;5085943;28;19912;-70
2022/03/17 07:15:25;;;;;;;;;;;7.40;88.00;;;;;;5086150;28;19923;-69
2022/03/17 07:17:51;;;;;;;;;;;7.40;87.80;;;;;;5086355;28;20204;-69
2022/03/17 07:20:19;;;;;;;;;;;7.50;87.70;;;;;;5085987;28;19912;-70
2022/03/17 07:22:47;;;;;;;;;;;7.50;87.60;;;;;;5084817;28;19908;-69
2022/03/17 07:25:13;;;;;;;;;;;7.50;87.40;;;;;;5085136;28;19909;-69
2022/03/17 07:27:40;;;;;;;;;;;7.50;87.30;;;;;;5085779;28;19915;-69
2022/03/17 07:30:19;;;;;;;;;;;7.50;87.30;;;;;;5084706;28;19912;-69
2022/03/17 07:32:52;;;;;;;;;;;7.60;87.60;;;;;;5084587;28;19909;-69
2022/03/17 07:35:18;;;;;;;;;;;7.60;87.50;;;;;;5085391;28;19919;-69
2022/03/17 07:37:43;;;;;;;;;;;7.60;87.30;;;;;;5085975;28;19908;-69
2022/03/17 07:40:10;;;;;;;;;;;7.70;87.30;;;;;;5085640;28;19913;-69
2022/03/17 07:42:35;;;;;;;;;;;7.80;87.30;;;;;;5085418;28;20199;-70
2022/03/17 07:45:01;;;;;;;;;;;7.80;86.60;;;;;;5084489;28;19908;-69
2022/03/17 07:47:28;;;;;;;;;;;7.90;86.60;;;;;;5085727;28;19908;-69
2022/03/17 07:49:53;;;;;;;;;;;7.90;87.10;;;;;;5084488;28;19963;-69
2022/03/17 07:52:19;;;;;;;;;;;8.00;87.00;;;;;;5085305;28;20158;-69
2022/03/17 07:54:48;;;;;;;;;;;8.10;86.30;;;;;;5084346;28;19909;-69
2022/03/17 07:57:13;;;;;;;;;;;8.10;86.20;;;;;;5085688;28;19909;-69
2022/03/17 07:59:39;;;;;;;;;;;8.10;85.90;;;;;;5084248;28;19951;-69
2022/03/17 08:02:05;;;;;;;;;;;8.20;85.80;;;;;;5083156;28;19983;-69
2022/03/17 08:04:31;;;;;;;;;;;8.30;85.60;;;;;;5085486;28;20107;-69
2022/03/17 08:07:00;;;;;;;;;;;8.30;85.40;;;;;;5084062;28;19916;-69
2022/03/17 08:09:27;;;;;;;;;;;8.40;85.20;;;;;;5085258;28;19908;-70
2022/03/17 08:11:52;;;;;;;;;;;8.40;85.30;;;;;;5066572;28;19908;-69
2022/03/17 08:14:18;;;;;;;;;;;8.40;85.00;;;;;;5085433;28;20114;-70
2022/03/17 08:16:44;;;;;;;;;;;8.40;85.30;;;;;;5084997;28;19975;-69
2022/03/17 08:19:10;;;;;;;;;;;8.40;85.70;;;;;;5085209;28;19908;-70
2022/03/17 08:21:37;;;;;;;;;;;8.50;85.30;;;;;;5084783;28;19908;-69
2022/03/17 08:24:03;;;;;;;;;;;8.60;85.00;;;;;;5085079;28;19915;-69
2022/03/17 08:26:29;;;;;;;;;;;8.70;84.10;;;;;;5084621;28;19930;-69
2022/03/17 08:28:54;;;;;;;;;;;8.80;83.60;;;;;;5085022;28;20214;-69
2022/03/17 08:31:20;;;;;;;;;;;8.80;83.90;;;;;;5084634;28;19927;-70
2022/03/17 08:33:46;;;;;;;;;;;8.80;83.80;;;;;;5084842;28;19908;-69
2022/03/17 08:36:12;;;;;;;;;;;8.80;83.40;;;;;;5084883;28;20222;-69
2022/03/17 08:38:37;;;;;;;;;;;8.90;83.90;;;;;;5084808;28;19912;-69
2022/03/17 08:41:03;;;;;;;;;;;9.00;83.30;;;;;;5084348;28;19987;-70
2022/03/17 08:43:29;;;;;;;;;;;9.10;83.40;;;;;;5103262;22;19929;-67
2022/03/17 08:51:26;;;;;;;;;;;9.30;81.10;;;;;;5064480;28;20253;-67
2022/03/17 08:53:52;;;;;;;;;;;9.50;80.50;;;;;;5064593;28;19909;-67
2022/03/17 08:56:18;;;;;;;;;;;9.70;79.60;;;;;;5064447;28;19909;-67
2022/03/17 08:58:44;;;;;;;;;;;9.90;77.80;;;;;;5064254;28;19909;-67
2022/03/17 09:01:11;;;;;;;;;;;9.90;77.40;;;;;;5063486;28;19913;-67
2022/03/17 09:03:36;;;;;;;;;;;9.90;77.60;;;;;;5064541;28;19916;-67
2022/03/17 09:06:02;;;;;;;;;;;10.00;77.60;;;;;;5064357;28;19909;-67
2022/03/17 09:08:28;;;;;;;;;;;10.00;77.80;;;;;;5064302;28;19989;-67
2022/03/17 09:10:55;;;;;;;;;;;10.00;78.00;;;;;;5063956;28;19991;-67
2022/03/17 09:13:23;;;;;;;;;;;10.20;76.70;;;;;;5064090;28;19916;-67
2022/03/17 09:15:49;;;;;;;;;;;10.30;76.80;;;;;;5064107;28;19909;-67
2022/03/17 09:18:15;;;;;;;;;;;10.30;76.50;;;;;;5063917;28;20222;-67
2022/03/17 09:20:41;;;;;;;;;;;10.30;75.40;;;;;;5046006;28;19913;-67
2022/03/17 09:23:07;;;;;;;;;;;10.40;74.90;;;;;;5062904;28;19909;-67
2022/03/17 09:25:34;;;;;;;;;;;10.40;75.30;;;;;;5064077;28;19915;-67
2022/03/17 09:28:00;;;;;;;;;;;10.40;73.90;;;;;;5063207;28;20162;-67
2022/03/17 09:30:26;;;;;;;;;;;10.30;74.80;;;;;;5063905;28;19909;-67
2022/03/17 09:32:52;;;;;;;;;;;10.50;75.50;;;;;;5029269;28;19974;-67
2022/03/17 09:35:18;;;;;;;;;;;10.50;74.40;;;;;;5063806;28;19917;-67
2022/03/17 09:37:43;;;;;;;;;;;10.60;74.70;;;;;;5063763;28;19908;-67
2022/03/17 09:40:09;;;;;;;;;;;10.50;75.00;;;;;;5062884;28;19984;-68
2022/03/17 09:42:36;;;;;;;;;;;10.60;75.00;;;;;;5063476;28;19934;-68
2022/03/17 09:45:02;;;;;;;;;;;10.70;73.20;;;;;;5063254;28;20121;-68
2022/03/17 09:47:28;;;;;;;;;;;10.70;72.00;;;;;;5063487;28;19947;-67
2022/03/17 09:49:54;;;;;;;;;;;10.70;73.10;;;;;;5063420;28;19909;-67
2022/03/17 09:52:20;;;;;;;;;;;10.60;73.20;;;;;;5062226;28;20116;-68
2022/03/17 09:54:50;;;;;;;;;;;10.40;73.90;;;;;;5063188;28;20226;-68
2022/03/17 09:57:16;;;;;;;;;;;10.30;74.50;;;;;;5063138;28;20200;-68
2022/03/17 09:59:49;;;;;;;;;;;10.30;74.90;;;;;;5045339;28;19913;-67
2022/03/17 10:02:16;;;;;;;;;;;10.30;74.20;;;;;;5061864;28;20019;-67
2022/03/17 10:04:44;;;;;;;;;;;10.40;74.20;;;;;;5063184;28;19909;-67
2022/03/17 10:07:09;;;;;;;;;;;10.30;74.60;;;;;;5062384;28;19931;-71
2022/03/17 10:09:35;;;;;;;;;;;10.40;75.20;;;;;;5063463;28;19909;-70
2022/03/17 10:12:03;;;;;;;;;;;10.50;74.60;;;;;;5062698;28;19971;-68
2022/03/17 10:14:38;;;;;;;;;;;10.80;73.20;;;;;;5062921;28;20163;-68
2022/03/17 10:17:05;;;;;;;;;;;10.80;72.50;;;;;;5063080;28;19909;-67
2022/03/17 10:19:32;;;;;;;;;;;10.60;73.40;;;;;;5045457;28;19920;-67
2022/03/17 10:22:08;;;;;;;;;;;10.60;72.90;;;;;;5063034;28;19912;-67
2022/03/17 10:24:36;;;;;;;;;;;10.40;72.10;;;;;;5061975;28;20199;-67
2022/03/17 10:27:03;;;;;;;;;;;10.40;72.70;;;;;;5062301;28;19910;-68
2022/03/17 10:29:29;;;;;;;;;;;10.40;73.30;;;;;;5045136;28;19916;-67
2022/03/17 10:31:59;;;;;;;;;;;10.50;73.10;;;;;;5062574;28;19908;-67
2022/03/17 10:34:29;;;;;;;;;;;10.50;73.00;;;;;;5062430;28;19955;-67
2022/03/17 10:37:15;;;;;;;;;;;10.60;72.60;;;;;;5061858;28;19947;-67
2022/03/17 10:39:42;;;;;;;;;;;10.60;73.30;;;;;;5062560;28;20269;-67
2022/03/17 10:42:18;;;;;;;;;;;10.60;72.20;;;;;;5064434;28;19968;-68
2022/03/17 10:44:51;;;;;;;;;;;10.60;72.60;;;;;;5063415;28;19935;-67
2022/03/17 10:47:24;;;;;;;;;;;10.60;72.00;;;;;;5063297;28;20216;-68
2022/03/17 10:50:00;;;;;;;;;;;10.70;72.10;;;;;;5062840;28;19961;-68
2022/03/17 10:52:41;;;;;;;;;;;10.80;71.70;;;;;;5062806;28;20030;-68
2022/03/17 10:55:11;;;;;;;;;;;10.80;70.90;;;;;;5062822;28;19909;-67
2022/03/17 10:57:37;;;;;;;;;;;10.90;70.30;;;;;;5062737;28;19909;-67
2022/03/17 11:00:09;;;;;;;;;;;10.80;70.90;;;;;;5062550;28;19956;-67
2022/03/17 11:02:35;;;;;;;;;;;10.90;70.40;;;;;;5061777;28;19915;-67
2022/03/17 11:05:06;;;;;;;;;;;11.00;70.20;;;;;;5061883;28;20112;-67
2022/03/17 11:07:32;;;;;;;;;;;11.00;70.50;;;;;;5062687;28;19947;-67
2022/03/17 11:09:58;;;;;;;;;;;10.90;70.40;;;;;;5062729;28;20109;-67
2022/03/17 11:12:25;;;;;;;;;;;11.00;69.70;;;;;;5044537;28;19916;-67
2022/03/17 11:14:51;;;;;;;;;;;11.10;68.70;;;;;;5062187;28;19948;-67
2022/03/17 11:17:20;;;;;;;;;;;11.10;69.20;;;;;;5063080;28;19909;-66
2022/03/17 11:19:46;;;;;;;;;;;11.20;69.70;;;;;;5044687;28;19988;-67
2022/03/17 11:22:16;;;;;;;;;;;11.20;68.80;;;;;;5044626;28;19909;-67
2022/03/17 11:24:41;;;;;;;;;;;11.30;68.30;;;;;;5062431;28;19940;-67
2022/03/17 11:27:13;;;;;;;;;;;11.40;67.60;;;;;;5044400;28;19909;-67
2022/03/17 11:29:41;;;;;;;;;;;11.30;68.00;;;;;;5053111;28;19936;-67
2022/03/17 11:32:09;;;;;;;;;;;11.20;67.70;;;;;;5049511;28;19920;-67
2022/03/17 11:34:38;;;;;;;;;;;11.30;69.00;;;;;;5062354;28;19909;-67
2022/03/17 11:37:18;;;;;;;;;;;11.30;68.50;;;;;;5062299;28;19972;-67
2022/03/17 11:39:57;;;;;;;;;;;11.50;66.40;;;;;;5062261;28;19920;-68
2022/03/17 11:42:52;;;;;;;;;;;11.50;66.70;;;;;;5061630;28;20258;-67
2022/03/17 11:45:18;;;;;;;;;;;11.60;65.30;;;;;;5062198;28;19912;-67
2022/03/17 11:47:45;;;;;;;;;;;11.50;65.30;;;;;;5065894;28;19923;-67
2022/03/17 11:50:38;;;;;;;;;;;11.50;66.10;;;;;;5065233;28;19979;-67
2022/03/17 11:53:05;;;;;;;;;;;11.60;65.10;;;;;;5065938;28;19989;-67
2022/03/17 11:55:46;;;;;;;;;;;11.60;64.90;;;;;;5065800;28;19944;-67
2022/03/17 11:58:34;;;;;;;;;;;11.60;63.70;;;;;;5065482;28;19909;-67
2022/03/17 12:01:05;;;;;;;;;;;11.50;64.60;;;;;;5065331;28;19919;-67
2022/03/17 12:03:32;;;;;;;;;;;11.40;65.60;;;;;;5064850;28;19909;-67
2022/03/17 12:06:14;;;;;;;;;;;11.40;64.90;;;;;;5065595;28;19909;-67
2022/03/17 12:08:46;;;;;;;;;;;11.50;64.60;;;;;;5065279;28;19908;-68
2022/03/17 12:11:13;;;;;;;;;;;11.50;64.30;;;;;;5064839;28;19909;-68
2022/03/17 12:13:40;;;;;;;;;;;11.60;62.40;;;;;;5054150;28;19913;-67
2022/03/17 12:16:06;;;;;;;;;;;11.70;62.10;;;;;;5068397;28;20085;-68
2022/03/17 12:19:00;;;;;;;;;;;11.70;61.00;;;;;;5067505;28;19908;-68
2022/03/17 12:22:03;;;;;;;;;;;11.70;61.40;;;;;;5071724;28;19916;-68
2022/03/17 12:24:48;;;;;;;;;;;11.60;61.50;;;;;;5056316;28;19979;-68
2022/03/17 12:27:29;;;;;;;;;;;11.60;61.20;;;;;;5084407;28;19908;-67
2022/03/17 12:30:01;;;;;;;;;;;11.60;61.40;;;;;;5084721;28;19915;-68
2022/03/17 12:32:29;;;;;;;;;;;11.70;60.90;;;;;;5075786;28;20226;-68
2022/03/17 12:34:56;;;;;;;;;;;11.80;60.40;;;;;;5070060;28;19913;-68
2022/03/17 12:37:23;;;;;;;;;;;11.80;59.60;;;;;;5083799;28;19970;-68
2022/03/17 12:39:50;;;;;;;;;;;11.80;59.70;;;;;;5067116;28;19919;-67
2022/03/17 12:42:21;;;;;;;;;;;11.80;60.80;;;;;;5066794;28;19908;-67
2022/03/17 12:44:48;;;;;;;;;;;11.80;60.10;;;;;;5084413;28;19913;-68
2022/03/17 12:47:14;;;;;;;;;;;11.90;59.70;;;;;;5084482;28;19924;-67
2022/03/17 12:49:40;;;;;;;;;;;12.00;59.20;;;;;;5067237;28;20273;-69
2022/03/17 12:52:21;;;;;;;;;;;11.90;58.90;;;;;;5048376;28;19908;-68
2022/03/17 12:54:57;;;;;;;;;;;11.90;59.50;;;;;;5077262;28;19919;-66
2022/03/17 12:57:25;;;;;;;;;;;12.00;59.60;;;;;;5059439;28;20284;-66
2022/03/17 12:59:51;;;;;;;;;;;12.10;59.30;;;;;;5070868;28;19925;-67
2022/03/17 13:02:18;;;;;;;;;;;12.00;59.70;;;;;;5070290;28;20983;-67
2022/03/17 13:04:50;;;;;;;;;;;12.00;59.30;;;;;;5068135;28;19919;-67
2022/03/17 13:07:16;;;;;;;;;;;12.00;59.40;;;;;;5044667;28;19909;-67
2022/03/17 13:09:42;;;;;;;;;;;12.10;59.30;;;;;;5076340;28;19913;-67
2022/03/17 13:14:54;;;;;;;;;;;12.00;60.10;;;;;;5066860;28;20018;-68
2022/03/17 13:17:40;;;;;;;;;;;12.10;60.30;;;;;;5053605;28;19913;-68
2022/03/17 13:20:11;;;;;;;;;;;12.10;59.80;;;;;;5082894;28;19952;-68
2022/03/17 13:22:41;;;;;;;;;;;12.00;59.80;;;;;;5083628;28;19909;-68
2022/03/17 13:25:11;;;;;;;;;;;12.00;61.00;;;;;;5083942;28;20209;-68
2022/03/17 13:27:41;;;;;;;;;;;12.10;60.00;;;;;;5065011;28;19936;-68
2022/03/17 13:30:09;;;;;;;;;;;12.20;62.50;;;;;;5062109;28;19916;-68
2022/03/17 13:32:34;;;;;;;;;;;12.20;63.90;;;;;;5072806;28;19916;-68
2022/03/17 13:35:01;;;;;;;;;;;12.20;65.40;;;;;;5068669;28;19913;-68
2022/03/17 13:37:43;;;;;;;;;;;12.30;64.60;;;;;;5080440;28;20215;-68
2022/03/17 13:40:16;;;;;;;;;;;12.40;64.50;;;;;;5071166;28;19959;-68
2022/03/17 13:43:04;;;;;;;;;;;12.40;63.70;;;;;;5060534;28;20235;-68
2022/03/17 13:45:34;;;;;;;;;;;12.50;63.40;;;;;;5049459;28;20138;-68
2022/03/17 13:48:02;;;;;;;;;;;12.40;63.20;;;;;;5050446;28;19972;-68
2022/03/17 13:50:28;;;;;;;;;;;12.50;63.20;;;;;;5070125;28;20199;-67
2022/03/17 13:52:58;;;;;;;;;;;12.60;64.00;;;;;;5083131;28;19908;-67
2022/03/17 13:55:31;;;;;;;;;;;12.70;62.80;;;;;;5083678;28;19909;-67
2022/03/17 13:58:08;;;;;;;;;;;12.60;63.10;;;;;;5083622;28;19915;-67
2022/03/17 14:00:34;;;;;;;;;;;12.70;63.60;;;;;;5083538;28;19966;-67
2022/03/17 14:03:15;;;;;;;;;;;12.60;63.00;;;;;;5076503;28;19920;-67
2022/03/17 14:06:18;;;;;;;;;;;12.60;62.90;;;;;;5083537;28;19916;-67
2022/03/17 14:08:47;;;;;;;;;;;12.60;63.90;;;;;;5082908;28;19915;-67
2022/03/17 14:11:14;;;;;;;;;;;12.60;63.40;;;;;;5082991;28;20150;-67
2022/03/17 14:13:45;;;;;;;;;;;12.70;63.20;;;;;;5083246;28;19909;-67
2022/03/17 14:16:12;;;;;;;;;;;12.70;63.30;;;;;;5083448;28;20104;-67
2022/03/17 14:18:39;;;;;;;;;;;12.60;63.60;;;;;;5080480;28;19943;-67
2022/03/17 14:21:07;;;;;;;;;;;12.50;62.80;;;;;;5082130;28;20173;-67
2022/03/17 14:26:17;;;;;;;;;;;12.40;63.20;;;;;;5057068;28;20210;-67
2022/03/17 14:28:43;;;;;;;;;;;12.30;63.40;;;;;;5060281;28;19932;-67
2022/03/17 14:31:12;;;;;;;;;;;12.30;63.70;;;;;;5056103;28;19915;-67
2022/03/17 14:33:41;;;;;;;;;;;12.20;63.10;;;;;;5051704;28;19920;-67
2022/03/17 14:36:08;;;;;;;;;;;12.10;63.10;;;;;;5058546;28;19909;-67
2022/03/17 14:38:34;;;;;;;;;;;12.20;63.20;;;;;;5061652;28;19919;-67
2022/03/17 14:41:00;;;;;;;;;;;12.10;63.60;;;;;;5061345;28;19913;-67
2022/03/17 14:43:26;;;;;;;;;;;12.10;63.70;;;;;;5084732;22;19916;-73
2022/03/17 14:45:51;;;;;;;;;;;12.00;63.60;;;;;;5089130;28;19916;-73
2022/03/17 14:48:17;;;;;;;;;;;12.00;63.80;;;;;;5099350;28;19915;-71
2022/03/17 14:50:43;;;;;;;;;;;12.00;63.90;;;;;;5102878;28;19971;-71
2022/03/17 14:53:08;;;;;;;;;;;12.00;63.90;;;;;;5101967;28;19954;-72